Saginaw, Missouri
Current Conditions -  °F | °C
As of 2:53 AM on Wednesday 28 Jan 2015 (Local Time) from KJLN Reporting Station
Clear Clear  
Wind Chill: 44°   Ceiling: Unl
Heat Index: 49°   Visibility: 10mi
Dew Point: 29°   Wind: 12mph
Humidity: 46%   Direction: 150°SSE
Pressure: 30.04"   Gusts: NA
Location:  37.02°N, 94.47°W
Report Text: KJLN 280853Z AUTO 15010KT 10SM CLR 09/M02 A3004 RMK AO2 SLP170 T00941017 56007 $
Loading
Personal Weather Stations






























Interactive Weather Map New forecast layout! Learn more

10-Day Weather Forecast

Advertisements
Track Severe Weather on mobile